sensor_id;sensor_type;location;lat;lon;timestamp;pressure;altitude;pressure_sealevel;temperature;humidity
4398;BME280;2213;49.720;7.296;2024-03-02T00:01:54;96770.47;;;6.08;100.00
4398;BME280;2213;49.720;7.296;2024-03-02T00:04:23;96765.44;;;6.00;100.00
4398;BME280;2213;49.720;7.296;2024-03-02T00:06:52;96764.84;;;6.04;100.00
4398;BME280;2213;49.720;7.296;2024-03-02T00:09:22;96764.69;;;6.06;100.00
4398;BME280;2213;49.720;7.296;2024-03-02T00:11:51;96760.09;;;6.08;100.00
4398;BME280;2213;49.720;7.296;2024-03-02T00:14:19;96764.72;;;6.13;100.00
4398;BME280;2213;49.720;7.296;2024-03-02T00:16:50;96762.94;;;6.13;100.00
4398;BME280;2213;49.720;7.296;2024-03-02T00:19:20;96765.13;;;6.16;100.00
4398;BME280;2213;49.720;7.296;2024-03-02T00:21:49;96766.53;;;6.19;100.00
4398;BME280;2213;49.720;7.296;2024-03-02T00:24:30;96762.72;;;6.15;100.00
4398;BME280;2213;49.720;7.296;2024-03-02T00:27:00;96758.34;;;6.15;100.00
4398;BME280;2213;49.720;7.296;2024-03-02T00:29:29;96755.56;;;6.17;100.00
4398;BME280;2213;49.720;7.296;2024-03-02T00:32:01;96754.75;;;6.16;100.00
4398;BME280;2213;49.720;7.296;2024-03-02T00:34:30;96752.13;;;6.10;100.00
4398;BME280;2213;49.720;7.296;2024-03-02T00:36:58;96748.88;;;6.01;100.00
4398;BME280;2213;49.720;7.296;2024-03-02T00:39:29;96757.88;;;6.05;100.00
4398;BME280;2213;49.720;7.296;2024-03-02T00:41:58;96756.50;;;6.09;100.00
4398;BME280;2213;49.720;7.296;2024-03-02T00:44:27;96752.72;;;6.12;100.00
4398;BME280;2213;49.720;7.296;2024-03-02T00:47:04;96763.09;;;6.12;100.00
4398;BME280;2213;49.720;7.296;2024-03-02T00:49:32;96750.13;;;6.12;100.00
4398;BME280;2213;49.720;7.296;2024-03-02T00:52:05;96749.56;;;6.16;100.00
4398;BME280;2213;49.720;7.296;2024-03-02T00:54:33;96746.72;;;6.11;100.00
4398;BME280;2213;49.720;7.296;2024-03-02T00:57:03;96747.91;;;6.08;100.00
4398;BME280;2213;49.720;7.296;2024-03-02T00:59:32;96749.88;;;6.00;100.00
4398;BME280;2213;49.720;7.296;2024-03-02T01:02:00;96745.84;;;5.97;100.00
4398;BME280;2213;49.720;7.296;2024-03-02T01:04:31;96751.66;;;5.99;100.00
4398;BME280;2213;49.720;7.296;2024-03-02T01:06:59;96746.91;;;6.03;100.00
4398;BME280;2213;49.720;7.296;2024-03-02T01:09:28;96747.50;;;6.05;100.00
4398;BME280;2213;49.720;7.296;2024-03-02T01:11:56;96749.50;;;6.03;100.00
4398;BME280;2213;49.720;7.296;2024-03-02T01:14:25;96742.31;;;6.05;100.00
4398;BME280;2213;49.720;7.296;2024-03-02T01:16:53;96745.16;;;6.10;100.00
4398;BME280;2213;49.720;7.296;2024-03-02T01:19:22;96745.84;;;5.97;100.00
4398;BME280;2213;49.720;7.296;2024-03-02T01:21:52;96747.25;;;5.93;100.00
4398;BME280;2213;49.720;7.296;2024-03-02T01:24:21;96749.41;;;5.90;100.00
4398;BME280;2213;49.720;7.296;2024-03-02T01:26:49;96745.63;;;5.92;100.00
4398;BME280;2213;49.720;7.296;2024-03-02T01:29:18;96741.69;;;5.96;100.00
4398;BME280;2213;49.720;7.296;2024-03-02T01:31:46;96747.28;;;6.00;100.00
4398;BME280;2213;49.720;7.296;2024-03-02T01:34:15;96737.50;;;6.02;100.00
4398;BME280;2213;49.720;7.296;2024-03-02T01:36:43;96740.91;;;6.02;100.00
4398;BME280;2213;49.720;7.296;2024-03-02T01:39:13;96734.53;;;6.05;100.00
4398;BME280;2213;49.720;7.296;2024-03-02T01:41:42;96733.34;;;6.07;100.00
4398;BME280;2213;49.720;7.296;2024-03-02T01:44:10;96732.75;;;6.05;100.00
4398;BME280;2213;49.720;7.296;2024-03-02T01:46:39;96731.09;;;5.98;100.00
4398;BME280;2213;49.720;7.296;2024-03-02T01:49:07;96728.06;;;5.94;100.00
4398;BME280;2213;49.720;7.296;2024-03-02T01:51:36;96725.72;;;5.99;100.00
4398;BME280;2213;49.720;7.296;2024-03-02T01:54:04;96726.28;;;5.95;100.00
4398;BME280;2213;49.720;7.296;2024-03-02T01:56:34;96732.25;;;5.89;100.00
4398;BME280;2213;49.720;7.296;2024-03-02T01:59:03;96731.47;;;5.95;100.00
4398;BME280;2213;49.720;7.296;2024-03-02T02:01:31;96724.69;;;5.94;100.00
4398;BME280;2213;49.720;7.296;2024-03-02T02:04:00;96717.22;;;5.84;100.00
4398;BME280;2213;49.720;7.296;2024-03-02T02:06:29;96719.06;;;5.90;100.00
4398;BME280;2213;49.720;7.296;2024-03-02T02:08:57;96713.09;;;5.90;100.00
4398;BME280;2213;49.720;7.296;2024-03-02T02:11:26;96711.50;;;5.89;100.00
4398;BME280;2213;49.720;7.296;2024-03-02T02:13:56;96717.06;;;5.86;100.00
4398;BME280;2213;49.720;7.296;2024-03-02T02:16:25;96708.03;;;5.82;100.00
4398;BME280;2213;49.720;7.296;2024-03-02T02:18:53;96702.84;;;5.82;100.00
4398;BME280;2213;49.720;7.296;2024-03-02T02:21:24;96696.66;;;5.83;100.00
4398;BME280;2213;49.720;7.296;2024-03-02T02:23:54;96697.44;;;5.83;100.00
4398;BME280;2213;49.720;7.296;2024-03-02T02:26:22;96696.66;;;5.83;100.00
4398;BME280;2213;49.720;7.296;2024-03-02T02:28:50;96694.63;;;5.78;100.00
4398;BME280;2213;49.720;7.296;2024-03-02T02:31:19;96695.72;;;5.63;100.00
4398;BME280;2213;49.720;7.296;2024-03-02T02:33:47;96698.31;;;5.63;100.00
4398;BME280;2213;49.720;7.296;2024-03-02T02:36:16;96693.13;;;5.63;100.00
4398;BME280;2213;49.720;7.296;2024-03-02T02:38:48;96694.31;;;5.60;100.00
4398;BME280;2213;49.720;7.296;2024-03-02T02:41:17;96687.72;;;5.57;100.00
4398;BME280;2213;49.720;7.296;2024-03-02T02:43:45;96685.88;;;5.51;100.00
4398;BME280;2213;49.720;7.296;2024-03-02T02:46:14;96682.91;;;5.54;100.00
4398;BME280;2213;49.720;7.296;2024-03-02T02:48:42;96694.28;;;5.53;100.00
4398;BME280;2213;49.720;7.296;2024-03-02T02:51:10;96687.84;;;5.49;100.00
4398;BME280;2213;49.720;7.296;2024-03-02T02:53:39;96690.41;;;5.43;100.00
4398;BME280;2213;49.720;7.296;2024-03-02T02:56:10;96686.81;;;5.44;100.00
4398;BME280;2213;49.720;7.296;2024-03-02T02:58:39;96690.41;;;5.43;100.00
4398;BME280;2213;49.720;7.296;2024-03-02T03:01:08;96697.16;;;5.37;100.00
4398;BME280;2213;49.720;7.296;2024-03-02T03:03:36;96696.91;;;5.32;100.00
4398;BME280;2213;49.720;7.296;2024-03-02T03:06:05;96691.50;;;5.27;100.00
4398;BME280;2213;49.720;7.296;2024-03-02T03:08:33;96688.25;;;5.25;100.00
4398;BME280;2213;49.720;7.296;2024-03-02T03:11:02;96692.25;;;5.28;100.00
4398;BME280;2213;49.720;7.296;2024-03-02T03:13:33;96681.47;;;5.24;100.00
4398;BME280;2213;49.720;7.296;2024-03-02T03:16:03;96679.13;;;5.29;100.00
4398;BME280;2213;49.720;7.296;2024-03-02T03:18:32;96676.78;;;5.34;100.00
4398;BME280;2213;49.720;7.296;2024-03-02T03:21:01;96675.19;;;5.33;100.00
4398;BME280;2213;49.720;7.296;2024-03-02T03:23:29;96679.97;;;5.36;100.00
4398;BME280;2213;49.720;7.296;2024-03-02T03:25:58;96680.78;;;5.37;100.00
4398;BME280;2213;49.720;7.296;2024-03-02T03:28:26;96682.84;;;5.41;100.00
4398;BME280;2213;49.720;7.296;2024-03-02T03:30:56;96684.41;;;5.42;100.00
4398;BME280;2213;49.720;7.296;2024-03-02T03:33:24;96678.84;;;5.45;100.00
4398;BME280;2213;49.720;7.296;2024-03-02T03:35:53;96688.41;;;5.45;100.00
4398;BME280;2213;49.720;7.296;2024-03-02T03:38:21;96680.06;;;5.49;100.00
4398;BME280;2213;49.720;7.296;2024-03-02T03:40:50;96688.28;;;5.53;100.00
4398;BME280;2213;49.720;7.296;2024-03-02T03:43:18;96682.72;;;5.56;100.00
4398;BME280;2213;49.720;7.296;2024-03-02T03:45:47;96681.72;;;5.57;100.00
4398;BME280;2213;49.720;7.296;2024-03-02T03:48:16;96677.34;;;5.57;100.00
4398;BME280;2213;49.720;7.296;2024-03-02T03:50:45;96682.16;;;5.61;100.00
4398;BME280;2213;49.720;7.296;2024-03-02T03:53:14;96691.75;;;5.67;100.00
4398;BME280;2213;49.720;7.296;2024-03-02T03:55:42;96689.78;;;5.69;100.00
4398;BME280;2213;49.720;7.296;2024-03-02T03:58:13;96689.16;;;5.67;100.00
4398;BME280;2213;49.720;7.296;2024-03-02T04:00:46;96685.00;;;5.66;100.00
4398;BME280;2213;49.720;7.296;2024-03-02T04:03:16;96688.16;;;5.61;100.00
4398;BME280;2213;49.720;7.296;2024-03-02T04:05:45;96685.34;;;5.63;100.00
4398;BME280;2213;49.720;7.296;2024-03-02T04:08:13;96690.53;;;5.63;100.00
4398;BME280;2213;49.720;7.296;2024-03-02T04:10:41;96689.97;;;5.67;100.00
4398;BME280;2213;49.720;7.296;2024-03-02T04:13:10;96686.16;;;5.63;100.00
4398;BME280;2213;49.720;7.296;2024-03-02T04:15:39;96685.72;;;5.59;100.00
4398;BME280;2213;49.720;7.296;2024-03-02T04:18:08;96686.53;;;5.60;100.00
4398;BME280;2213;49.720;7.296;2024-03-02T04:20:38;96684.91;;;5.59;100.00
4398;BME280;2213;49.720;7.296;2024-03-02T04:23:06;96689.31;;;5.58;100.00
4398;BME280;2213;49.720;7.296;2024-03-02T04:25:34;96690.91;;;5.59;100.00
4398;BME280;2213;49.720;7.296;2024-03-02T04:28:03;96688.31;;;5.59;100.00
4398;BME280;2213;49.720;7.296;2024-03-02T04:30:32;96682.72;;;5.56;100.00
4398;BME280;2213;49.720;7.296;2024-03-02T04:33:00;96684.91;;;5.59;100.00
4398;BME280;2213;49.720;7.296;2024-03-02T04:35:29;96685.72;;;5.59;100.00
4398;BME280;2213;49.720;7.296;2024-03-02T04:37:59;96685.72;;;5.59;100.00
4398;BME280;2213;49.720;7.296;2024-03-02T04:40:27;96690.53;;;5.63;100.00
4398;BME280;2213;49.720;7.296;2024-03-02T04:42:56;96693.28;;;5.54;100.00
4398;BME280;2213;49.720;7.296;2024-03-02T04:45:26;96692.09;;;5.57;100.00
4398;BME280;2213;49.720;7.296;2024-03-02T04:47:54;96700.47;;;5.59;100.00
4398;BME280;2213;49.720;7.296;2024-03-02T04:50:23;96702.72;;;5.62;100.00
4398;BME280;2213;49.720;7.296;2024-03-02T04:52:51;96699.31;;;5.62;100.00
4398;BME280;2213;49.720;7.296;2024-03-02T04:55:21;96697.72;;;5.61;100.00
4398;BME280;2213;49.720;7.296;2024-03-02T04:58:12;96706.47;;;5.59;100.00
4398;BME280;2213;49.720;7.296;2024-03-02T05:00:40;96705.50;;;5.61;100.00
4398;BME280;2213;49.720;7.296;2024-03-02T05:03:10;96703.69;;;5.61;100.00
4398;BME280;2213;49.720;7.296;2024-03-02T05:05:38;96710.91;;;5.66;100.00
4398;BME280;2213;49.720;7.296;2024-03-02T05:08:07;96714.72;;;5.70;100.00
4398;BME280;2213;49.720;7.296;2024-03-02T05:10:37;96714.13;;;5.68;100.00
4398;BME280;2213;49.720;7.296;2024-03-02T05:13:05;96710.53;;;5.69;100.00
4398;BME280;2213;49.720;7.296;2024-03-02T05:15:34;96705.31;;;5.62;100.00
4398;BME280;2213;49.720;7.296;2024-03-02T05:18:03;96707.69;;;5.64;100.00
4398;BME280;2213;49.720;7.296;2024-03-02T05:20:32;96708.88;;;5.61;100.00
4398;BME280;2213;49.720;7.296;2024-03-02T05:23:01;96703.50;;;5.63;100.00
4398;BME280;2213;49.720;7.296;2024-03-02T05:25:29;96715.59;;;5.55;100.00
4398;BME280;2213;49.720;7.296;2024-03-02T05:27:59;96698.47;;;5.54;100.00
4398;BME280;2213;49.720;7.296;2024-03-02T05:30:27;96697.66;;;5.54;100.00
4398;BME280;2213;49.720;7.296;2024-03-02T05:32:56;96698.84;;;5.51;100.00
4398;BME280;2213;49.720;7.296;2024-03-02T05:35:25;96708.00;;;5.47;100.00
4398;BME280;2213;49.720;7.296;2024-03-02T05:37:53;96708.78;;;5.48;100.00
4398;BME280;2213;49.720;7.296;2024-03-02T05:40:21;96714.56;;;5.50;100.00
4398;BME280;2213;49.720;7.296;2024-03-02T05:42:50;96709.81;;;5.53;100.00
4398;BME280;2213;49.720;7.296;2024-03-02T05:45:20;96710.38;;;5.49;100.00
4398;BME280;2213;49.720;7.296;2024-03-02T05:47:49;96707.50;;;5.37;100.00
4398;BME280;2213;49.720;7.296;2024-03-02T05:50:18;96705.84;;;5.30;100.00
4398;BME280;2213;49.720;7.296;2024-03-02T05:52:47;96702.72;;;5.34;100.00
4398;BME280;2213;49.720;7.296;2024-03-02T05:55:15;96705.03;;;5.29;100.00
4398;BME280;2213;49.720;7.296;2024-03-02T05:57:44;96704.66;;;5.32;100.00
4398;BME280;2213;49.720;7.296;2024-03-02T06:00:27;96709.63;;;5.27;100.00
4398;BME280;2213;49.720;7.296;2024-03-02T06:02:58;96710.59;;;5.26;100.00
4398;BME280;2213;49.720;7.296;2024-03-02T06:05:27;96711.78;;;5.24;100.00
4398;BME280;2213;49.720;7.296;2024-03-02T06:07:55;96710.56;;;5.20;100.00
4398;BME280;2213;49.720;7.296;2024-03-02T06:10:24;96718.94;;;5.22;100.00
4398;BME280;2213;49.720;7.296;2024-03-02T06:12:53;96715.53;;;5.21;100.00
4398;BME280;2213;49.720;7.296;2024-03-02T06:15:21;96722.94;;;5.24;100.00
4398;BME280;2213;49.720;7.296;2024-03-02T06:17:51;96720.97;;;5.26;100.00
4398;BME280;2213;49.720;7.296;2024-03-02T06:20:20;96729.97;;;5.30;100.00
4398;BME280;2213;49.720;7.296;2024-03-02T06:22:48;96731.94;;;5.28;100.00
4398;BME280;2213;49.720;7.296;2024-03-02T06:25:17;96730.16;;;5.29;100.00
4398;BME280;2213;49.720;7.296;2024-03-02T06:27:45;96737.75;;;5.30;100.00
4398;BME280;2213;49.720;7.296;2024-03-02T06:30:14;96740.94;;;5.32;100.00
4398;BME280;2213;49.720;7.296;2024-03-02T06:32:43;96743.81;;;5.37;100.00
4398;BME280;2213;49.720;7.296;2024-03-02T06:35:13;96752.19;;;5.39;100.00
4398;BME280;2213;49.720;7.296;2024-03-02T06:37:42;96745.03;;;5.41;100.00
4398;BME280;2213;49.720;7.296;2024-03-02T06:40:11;96749.63;;;5.46;100.00
4398;BME280;2213;49.720;7.296;2024-03-02T06:42:39;96752.59;;;5.43;100.00
4398;BME280;2213;49.720;7.296;2024-03-02T06:45:08;96751.03;;;5.48;100.00
4398;BME280;2213;49.720;7.296;2024-03-02T06:47:36;96759.47;;;5.50;100.00
4398;BME280;2213;49.720;7.296;2024-03-02T06:50:05;96758.03;;;5.48;100.00
4398;BME280;2213;49.720;7.296;2024-03-02T06:52:36;96765.25;;;5.52;100.00
4398;BME280;2213;49.720;7.296;2024-03-02T06:55:06;96763.47;;;5.53;100.00
4398;BME280;2213;49.720;7.296;2024-03-02T06:57:35;96765.50;;;5.57;100.00
4398;BME280;2213;49.720;7.296;2024-03-02T07:00:05;96771.91;;;5.62;100.00
4398;BME280;2213;49.720;7.296;2024-03-02T07:02:36;96772.94;;;5.67;100.00
4398;BME280;2213;49.720;7.296;2024-03-02T07:05:05;96779.13;;;5.66;100.00
4398;BME280;2213;49.720;7.296;2024-03-02T07:07:36;96775.97;;;5.71;100.00
4398;BME280;2213;49.720;7.296;2024-03-02T07:10:05;96769.41;;;5.75;100.00
4398;BME280;2213;49.720;7.296;2024-03-02T07:12:34;96776.81;;;5.78;100.00
4398;BME280;2213;49.720;7.296;2024-03-02T07:15:04;96776.88;;;5.84;100.00
4398;BME280;2213;49.720;7.296;2024-03-02T07:17:48;96769.38;;;5.89;100.00
4398;BME280;2213;49.720;7.296;2024-03-02T07:20:17;96786.94;;;5.94;100.00
4398;BME280;2213;49.720;7.296;2024-03-02T07:22:47;96791.78;;;5.97;100.00
4398;BME280;2213;49.720;7.296;2024-03-02T07:25:16;96778.81;;;5.97;100.00
4398;BME280;2213;49.720;7.296;2024-03-02T07:27:47;96780.59;;;5.96;100.00
4398;BME280;2213;49.720;7.296;2024-03-02T07:30:16;96781.00;;;6.00;100.00
4398;BME280;2213;49.720;7.296;2024-03-02T07:32:45;96783.22;;;6.03;100.00
4398;BME280;2213;49.720;7.296;2024-03-02T07:35:14;96782.22;;;6.04;100.00
4398;BME280;2213;49.720;7.296;2024-03-02T07:37:43;96784.88;;;6.11;100.00
4398;BME280;2213;49.720;7.296;2024-03-02T07:40:13;96780.72;;;6.16;100.00
4398;BME280;2213;49.720;7.296;2024-03-02T07:42:42;96778.72;;;6.18;100.00
4398;BME280;2213;49.720;7.296;2024-03-02T07:45:11;96783.16;;;6.24;100.00
4398;BME280;2213;49.720;7.296;2024-03-02T07:47:40;96787.97;;;6.27;100.00
4398;BME280;2213;49.720;7.296;2024-03-02T07:50:09;96775.19;;;6.32;100.00
4398;BME280;2213;49.720;7.296;2024-03-02T07:52:38;96782.81;;;6.34;100.00
4398;BME280;2213;49.720;7.296;2024-03-02T07:55:07;96785.81;;;6.37;100.00
4398;BME280;2213;49.720;7.296;2024-03-02T07:57:37;96789.66;;;6.41;100.00
4398;BME280;2213;49.720;7.296;2024-03-02T08:00:07;96795.84;;;6.47;100.00
4398;BME280;2213;49.720;7.296;2024-03-02T08:02:36;96796.91;;;6.52;100.00
4398;BME280;2213;49.720;7.296;2024-03-02T08:05:06;96786.91;;;6.56;100.00
4398;BME280;2213;49.720;7.296;2024-03-02T08:07:36;96790.53;;;6.62;100.00
4398;BME280;2213;49.720;7.296;2024-03-02T08:10:07;96779.59;;;6.66;100.00
4398;BME280;2213;49.720;7.296;2024-03-02T08:12:37;96784.00;;;6.72;100.00
4398;BME280;2213;49.720;7.296;2024-03-02T08:15:07;96782.41;;;6.78;100.00
4398;BME280;2213;49.720;7.296;2024-03-02T08:17:36;96782.63;;;6.83;100.00
4398;BME280;2213;49.720;7.296;2024-03-02T08:20:07;96786.63;;;6.85;100.00
4398;BME280;2213;49.720;7.296;2024-03-02T08:22:36;96795.44;;;6.91;100.00
4398;BME280;2213;49.720;7.296;2024-03-02T08:25:05;96797.47;;;6.95;100.00
4398;BME280;2213;49.720;7.296;2024-03-02T08:27:36;96795.28;;;6.99;100.00
4398;BME280;2213;49.720;7.296;2024-03-02T08:30:07;96803.09;;;7.05;100.00
4398;BME280;2213;49.720;7.296;2024-03-02T08:32:37;96797.09;;;7.12;100.00
4398;BME280;2213;49.720;7.296;2024-03-02T08:35:08;96791.94;;;7.18;100.00
4398;BME280;2213;49.720;7.296;2024-03-02T08:37:39;96791.16;;;7.24;100.00
4398;BME280;2213;49.720;7.296;2024-03-02T08:40:09;96788.56;;;7.31;100.00
4398;BME280;2213;49.720;7.296;2024-03-02T08:42:44;96797.34;;;7.36;100.00
4398;BME280;2213;49.720;7.296;2024-03-02T08:45:13;96792.56;;;7.40;100.00
4398;BME280;2213;49.720;7.296;2024-03-02T08:47:42;96796.38;;;7.44;100.00
4398;BME280;2213;49.720;7.296;2024-03-02T08:50:11;96794.00;;;7.49;100.00
4398;BME280;2213;49.720;7.296;2024-03-02T08:52:39;96789.59;;;7.49;100.00
4398;BME280;2213;49.720;7.296;2024-03-02T08:55:08;96795.00;;;7.54;100.00
4398;BME280;2213;49.720;7.296;2024-03-02T08:57:38;96802.41;;;7.57;100.00
4398;BME280;2213;49.720;7.296;2024-03-02T09:00:10;96803.19;;;7.65;100.00
4398;BME280;2213;49.720;7.296;2024-03-02T09:02:38;96807.19;;;7.67;100.00
4398;BME280;2213;49.720;7.296;2024-03-02T09:05:08;96800.81;;;7.70;100.00
4398;BME280;2213;49.720;7.296;2024-03-02T09:07:37;96803.59;;;7.75;100.00
4398;BME280;2213;49.720;7.296;2024-03-02T09:10:08;96800.00;;;7.82;100.00
4398;BME280;2213;49.720;7.296;2024-03-02T09:12:38;96795.19;;;7.86;100.00
4398;BME280;2213;49.720;7.296;2024-03-02T09:15:09;96795.41;;;7.91;100.00
4398;BME280;2213;49.720;7.296;2024-03-02T09:17:37;96792.81;;;7.97;100.00
4398;BME280;2213;49.720;7.296;2024-03-02T09:20:07;96798.00;;;8.04;100.00
4398;BME280;2213;49.720;7.296;2024-03-02T09:22:36;96782.78;;;8.07;100.00
4398;BME280;2213;49.720;7.296;2024-03-02T09:25:05;96789.78;;;8.14;100.00
4398;BME280;2213;49.720;7.296;2024-03-02T09:27:36;96787.56;;;8.17;100.00
4398;BME280;2213;49.720;7.296;2024-03-02T09:30:10;96789.75;;;8.27;100.00
4398;BME280;2213;49.720;7.296;2024-03-02T09:32:38;96796.59;;;8.34;100.00
4398;BME280;2213;49.720;7.296;2024-03-02T09:35:08;96790.38;;;8.42;100.00
4398;BME280;2213;49.720;7.296;2024-03-02T09:37:36;96783.53;;;8.47;100.00
4398;BME280;2213;49.720;7.296;2024-03-02T09:40:06;96791.31;;;8.54;100.00
4398;BME280;2213;49.720;7.296;2024-03-02T09:42:35;96786.50;;;8.57;100.00
4398;BME280;2213;49.720;7.296;2024-03-02T09:45:06;96792.91;;;8.62;100.00
4398;BME280;2213;49.720;7.296;2024-03-02T09:47:36;96789.88;;;8.65;100.00
4398;BME280;2213;49.720;7.296;2024-03-02T09:50:06;96796.28;;;8.69;100.00
4398;BME280;2213;49.720;7.296;2024-03-02T09:52:37;96794.25;;;8.77;100.00
4398;BME280;2213;49.720;7.296;2024-03-02T09:55:07;96795.47;;;8.81;100.00
4398;BME280;2213;49.720;7.296;2024-03-02T09:57:36;96787.81;;;8.86;100.00
4398;BME280;2213;49.720;7.296;2024-03-02T10:00:09;96789.38;;;8.94;100.00
4398;BME280;2213;49.720;7.296;2024-03-02T10:02:43;96790.56;;;8.98;100.00
4398;BME280;2213;49.720;7.296;2024-03-02T10:05:13;96800.97;;;9.04;100.00
4398;BME280;2213;49.720;7.296;2024-03-02T10:07:42;96789.69;;;9.10;100.00
4398;BME280;2213;49.720;7.296;2024-03-02T10:10:14;96784.28;;;9.12;100.00
4398;BME280;2213;49.720;7.296;2024-03-02T10:12:45;96785.06;;;9.19;100.00
4398;BME280;2213;49.720;7.296;2024-03-02T10:15:23;96785.19;;;9.24;100.00
4398;BME280;2213;49.720;7.296;2024-03-02T10:17:53;96785.59;;;9.28;100.00
4398;BME280;2213;49.720;7.296;2024-03-02T10:20:23;96776.34;;;9.32;100.00
4398;BME280;2213;49.720;7.296;2024-03-02T10:22:52;96783.34;;;9.31;100.00
4398;BME280;2213;49.720;7.296;2024-03-02T10:25:32;96782.72;;;9.36;100.00
4398;BME280;2213;49.720;7.296;2024-03-02T10:28:04;96784.72;;;9.40;100.00
4398;BME280;2213;49.720;7.296;2024-03-02T10:30:34;96778.22;;;9.49;100.00
4398;BME280;2213;49.720;7.296;2024-03-02T10:33:06;96772.16;;;9.55;100.00
4398;BME280;2213;49.720;7.296;2024-03-02T10:35:35;96778.13;;;9.63;100.00
4398;BME280;2213;49.720;7.296;2024-03-02T10:38:05;96780.50;;;9.71;100.00
4398;BME280;2213;49.720;7.296;2024-03-02T10:40:34;96777.03;;;9.77;100.00
4398;BME280;2213;49.720;7.296;2024-03-02T10:43:04;96771.53;;;9.85;100.00
4398;BME280;2213;49.720;7.296;2024-03-02T10:45:34;96766.63;;;9.95;100.00
4398;BME280;2213;49.720;7.296;2024-03-02T10:48:06;96771.22;;;9.99;100.00
4398;BME280;2213;49.720;7.296;2024-03-02T10:50:36;96780.38;;;10.08;100.00
4398;BME280;2213;49.720;7.296;2024-03-02T10:53:04;96772.06;;;10.18;100.00
4398;BME280;2213;49.720;7.296;2024-03-02T10:55:33;96775.41;;;10.25;100.00
4398;BME280;2213;49.720;7.296;2024-03-02T10:58:04;96770.34;;;10.30;100.00
4398;BME280;2213;49.720;7.296;2024-03-02T11:00:38;96778.75;;;10.32;100.00
4398;BME280;2213;49.720;7.296;2024-03-02T11:03:10;96771.28;;;10.36;100.00
4398;BME280;2213;49.720;7.296;2024-03-02T11:05:44;96768.84;;;10.41;100.00
4398;BME280;2213;49.720;7.296;2024-03-02T11:08:18;96765.19;;;10.42;100.00
4398;BME280;2213;49.720;7.296;2024-03-02T11:10:54;96764.19;;;10.43;100.00
4398;BME280;2213;49.720;7.296;2024-03-02T11:13:32;96768.16;;;10.45;100.00
4398;BME280;2213;49.720;7.296;2024-03-02T11:16:14;96766.50;;;10.51;100.00
4398;BME280;2213;49.720;7.296;2024-03-02T11:18:50;96758.44;;;10.52;100.00
4398;BME280;2213;49.720;7.296;2024-03-02T11:21:19;96752.94;;;10.60;100.00
4398;BME280;2213;49.720;7.296;2024-03-02T11:23:48;96743.63;;;10.65;100.00
4398;BME280;2213;49.720;7.296;2024-03-02T11:26:20;96732.84;;;10.73;100.00
4398;BME280;2213;49.720;7.296;2024-03-02T11:28:49;96735.19;;;10.81;100.00
4398;BME280;2213;49.720;7.296;2024-03-02T11:31:17;96736.69;;;10.88;100.00
4398;BME280;2213;49.720;7.296;2024-03-02T11:33:46;96729.78;;;10.94;100.00
4398;BME280;2213;49.720;7.296;2024-03-02T11:36:17;96729.47;;;11.02;100.00
4398;BME280;2213;49.720;7.296;2024-03-02T11:38:46;96725.75;;;11.09;100.00
4398;BME280;2213;49.720;7.296;2024-03-02T11:41:15;96730.53;;;11.13;100.00
4398;BME280;2213;49.720;7.296;2024-03-02T11:43:45;96722.94;;;11.23;100.00
4398;BME280;2213;49.720;7.296;2024-03-02T11:46:15;96720.00;;;11.31;100.00
4398;BME280;2213;49.720;7.296;2024-03-02T11:48:43;96724.25;;;11.43;100.00
4398;BME280;2213;49.720;7.296;2024-03-02T11:51:12;96716.94;;;11.45;100.00
4398;BME280;2213;49.720;7.296;2024-03-02T11:53:45;96709.22;;;11.50;100.00
4398;BME280;2213;49.720;7.296;2024-03-02T11:56:17;96711.63;;;11.63;100.00
4398;BME280;2213;49.720;7.296;2024-03-02T11:58:46;96711.34;;;11.72;100.00
4398;BME280;2213;49.720;7.296;2024-03-02T12:01:16;96699.16;;;11.77;100.00
4398;BME280;2213;49.720;7.296;2024-03-02T12:03:46;96702.34;;;11.79;100.00
4398;BME280;2213;49.720;7.296;2024-03-02T12:06:16;96699.03;;;11.84;100.00
4398;BME280;2213;49.720;7.296;2024-03-02T12:08:52;96697.34;;;11.89;100.00
4398;BME280;2213;49.720;7.296;2024-03-02T12:11:22;96691.44;;;11.94;100.00
4398;BME280;2213;49.720;7.296;2024-03-02T12:13:53;96682.31;;;11.96;100.00
4398;BME280;2213;49.720;7.296;2024-03-02T12:16:24;96686.28;;;11.99;100.00
4398;BME280;2213;49.720;7.296;2024-03-02T12:18:53;96691.06;;;12.02;100.00
4398;BME280;2213;49.720;7.296;2024-03-02T12:21:21;96680.34;;;11.92;100.00
4398;BME280;2213;49.720;7.296;2024-03-02T12:23:51;96682.97;;;11.92;100.00
4398;BME280;2213;49.720;7.296;2024-03-02T12:26:20;96680.34;;;11.92;100.00
4398;BME280;2213;49.720;7.296;2024-03-02T12:28:50;96675.13;;;11.92;100.00
4398;BME280;2213;49.720;7.296;2024-03-02T12:31:19;96672.84;;;11.95;100.00
4398;BME280;2213;49.720;7.296;2024-03-02T12:33:47;96672.03;;;11.95;100.00
4398;BME280;2213;49.720;7.296;2024-03-02T12:36:16;96670.22;;;11.95;100.00
4398;BME280;2213;49.720;7.296;2024-03-02T12:38:46;96671.56;;;11.98;100.00
4398;BME280;2213;49.720;7.296;2024-03-02T12:41:17;96660.41;;;12.02;100.00
4398;BME280;2213;49.720;7.296;2024-03-02T12:43:45;96659.94;;;12.05;100.00
4398;BME280;2213;49.720;7.296;2024-03-02T12:46:14;96657.47;;;12.10;100.00
4398;BME280;2213;49.720;7.296;2024-03-02T12:48:44;96651.50;;;12.15;100.00
4398;BME280;2213;49.720;7.296;2024-03-02T12:51:12;96649.94;;;12.14;100.00
4398;BME280;2213;49.720;7.296;2024-03-02T12:53:41;96652.31;;;12.16;100.00
4398;BME280;2213;49.720;7.296;2024-03-02T12:56:10;96659.38;;;12.15;100.00
4398;BME280;2213;49.720;7.296;2024-03-02T12:58:41;96659.38;;;12.15;100.00
4398;BME280;2213;49.720;7.296;2024-03-02T13:01:10;96652.09;;;12.17;100.00
4398;BME280;2213;49.720;7.296;2024-03-02T13:03:39;96657.19;;;12.24;100.00
4398;BME280;2213;49.720;7.296;2024-03-02T13:06:08;96648.97;;;12.32;100.00
4398;BME280;2213;49.720;7.296;2024-03-02T13:08:37;96644.41;;;12.39;100.00
4398;BME280;2213;49.720;7.296;2024-03-02T13:11:06;96649.03;;;12.48;100.00
4398;BME280;2213;49.720;7.296;2024-03-02T13:13:35;96655.41;;;12.52;100.00
4398;BME280;2213;49.720;7.296;2024-03-02T13:16:08;96648.91;;;12.55;100.00
4398;BME280;2213;49.720;7.296;2024-03-02T13:18:39;96639.22;;;12.55;100.00
4398;BME280;2213;49.720;7.296;2024-03-02T13:21:08;96637.13;;;12.57;100.00
4398;BME280;2213;49.720;7.296;2024-03-02T13:23:37;96631.09;;;12.57;100.00
4398;BME280;2213;49.720;7.296;2024-03-02T13:26:05;96629.53;;;12.56;100.00
4398;BME280;2213;49.720;7.296;2024-03-02T13:28:35;96629.75;;;12.54;100.00
4398;BME280;2213;49.720;7.296;2024-03-02T13:31:04;96633.06;;;12.50;100.00
4398;BME280;2213;49.720;7.296;2024-03-02T13:33:34;96627.81;;;12.50;100.00